Time;durP1;ratioP1;P1;durP2;ratioP2;P2;SDS_P1;SDS_P2;PMS_P1;PMS_P2;Temp;Humidity;BMP_temperature;BMP_pressure;BME280_temperature;BME280_humidity;BME280_pressure;Samples;Min_cycle;Max_cycle;Signal;HPM_P1;HPM_P2
2021/12/14 00:02:01;;;;;;;92.60;40.95;;;;;;;22.10;17.56;99186.00;5025498;28;20634;-80
2021/12/14 00:04:34;;;;;;;81.00;37.22;;;;;;;22.13;17.62;99185.22;5028808;28;20030;-81
2021/12/14 00:07:04;;;;;;;76.22;37.20;;;;;;;22.59;17.29;99185.38;5030336;28;20042;-81
2021/12/14 00:09:35;;;;;;;71.20;34.55;;;;;;;22.69;17.09;99188.19;5023730;28;20067;-80
2021/12/14 00:17:22;;;;;;;70.68;33.17;;;;;;;23.07;16.80;99183.81;5029121;28;20508;-80
2021/12/14 00:19:52;;;;;;;65.53;32.63;;;;;;;22.78;17.23;99178.63;5031589;28;20033;-81
2021/12/14 00:22:28;;;;;;;58.28;28.80;;;;;;;22.87;17.20;99177.00;5030898;28;20037;-81
2021/12/14 00:24:56;;;;;;;65.88;31.55;;;;;;;23.10;16.85;99174.63;5028313;28;20029;-80
2021/12/14 00:27:23;;;;;;;58.92;30.98;;;;;;;22.78;17.23;99173.81;5033551;28;20033;-81
2021/12/14 00:29:53;;;;;;;66.90;30.73;;;;;;;22.67;17.26;99176.59;5035836;28;20036;-81
2021/12/14 00:32:23;;;;;;;67.30;30.53;;;;;;;22.37;17.66;99184.50;5027421;28;20026;-80
2021/12/14 00:34:52;;;;;;;62.20;28.75;;;;;;;22.79;17.33;99178.22;5032099;28;20033;-81
2021/12/14 00:37:22;;;;;;;64.88;30.33;;;;;;;23.07;16.97;99183.81;5026179;28;20029;-80
2021/12/14 00:39:51;;;;;;;68.47;29.20;;;;;;;22.50;17.73;99180.13;5033550;28;20032;-80
2021/12/14 00:42:18;;;;;;;58.88;28.10;;;;;;;23.05;17.07;99185.41;5024929;28;20072;-81
2021/12/14 00:44:46;;;;;;;61.22;29.27;;;;;;;23.23;16.98;99180.59;5032535;28;20037;-80
2021/12/14 00:47:12;;;;;;;58.10;28.85;;;;;;;23.09;17.04;99186.22;5033539;28;20104;-80
2021/12/14 00:49:39;;;;;;;60.50;28.70;;;;;;;22.90;17.41;99183.81;5029396;28;20030;-80
2021/12/14 00:52:06;;;;;;;57.22;27.75;;;;;;;22.81;17.37;99191.81;5028225;28;20117;-81
2021/12/14 00:54:32;;;;;;;56.17;26.40;;;;;;;22.93;17.50;99191.41;5033340;28;20500;-80
2021/12/14 00:56:59;;;;;;;67.07;29.83;;;;;;;23.20;17.19;99187.00;5028934;28;20120;-81
2021/12/14 00:59:25;;;;;;;59.65;28.98;;;;;;;23.68;16.71;99192.97;5030375;28;20036;-80
2021/12/14 01:02:08;;;;;;;60.08;29.08;;;;;;;23.73;16.68;99193.38;5031580;28;20506;-80
2021/12/14 01:04:49;;;;;;;62.15;27.63;;;;;;;23.67;16.77;99191.34;5033963;28;20095;-80
2021/12/14 01:07:17;;;;;;;61.67;29.45;;;;;;;23.38;16.94;99187.03;5027104;28;20068;-80
2021/12/14 01:09:49;;;;;;;61.35;28.70;;;;;;;23.07;17.36;99188.63;5033737;28;20033;-80
2021/12/14 01:12:32;;;;;;;62.53;28.48;;;;;;;22.98;17.33;99189.03;5032762;28;20118;-81
2021/12/14 01:15:23;;;;;;;63.28;28.88;;;;;;;22.97;17.30;99179.00;5028657;28;20021;-80
2021/12/14 01:18:01;;;;;;;64.15;29.50;;;;;;;23.10;17.17;99173.81;5031888;28;20056;-80
2021/12/14 01:20:35;;;;;;;62.47;29.77;;;;;;;23.22;17.27;99173.41;5031692;28;20059;-80
2021/12/14 01:23:04;;;;;;;57.50;28.40;;;;;;;23.62;16.84;99161.72;5025099;28;20049;-80
2021/12/14 01:25:36;;;;;;;56.67;25.48;;;;;;;23.48;17.17;99161.75;5026807;28;20034;-81
2021/12/14 01:28:07;;;;;;;54.83;27.38;;;;;;;23.88;16.53;99166.06;5032059;28;20025;-81
2021/12/14 01:30:42;;;;;;;60.00;26.98;;;;;;;23.77;16.66;99173.72;5030529;28;20041;-80
2021/12/14 01:33:12;;;;;;;57.83;26.88;;;;;;;23.94;16.72;99165.22;5030877;28;20049;-80
2021/12/14 01:35:43;;;;;;;57.22;25.50;;;;;;;24.19;16.33;99162.34;5031417;28;20060;-80
2021/12/14 01:40:58;;;;;;;58.75;26.38;;;;;;;23.76;16.90;99166.50;5023286;28;20485;-80
2021/12/14 01:43:36;;;;;;;58.08;26.55;;;;;;;23.47;17.15;99168.59;5029311;28;20076;-81
2021/12/14 01:46:09;;;;;;;53.00;24.98;;;;;;;23.53;17.18;99180.19;5025107;28;20034;-80
2021/12/14 01:48:35;;;;;;;57.78;25.90;;;;;;;23.95;16.96;99168.81;5032030;28;20112;-81
2021/12/14 01:51:06;;;;;;;52.38;22.38;;;;;;;24.42;16.51;99167.41;5026795;28;20515;-80
2021/12/14 01:53:33;;;;;;;;;;;;;;;24.52;16.20;99160.94;5030857;28;20072;-81
2021/12/14 01:56:03;;;;;;;60.10;24.95;;;;;;;24.64;16.28;99158.44;5028499;28;19917;-80
2021/12/14 01:58:41;;;;;;;54.38;25.20;;;;;;;24.75;16.00;99158.38;5023658;28;20029;-80
2021/12/14 02:01:15;;;;;;;51.03;25.52;;;;;;;24.36;16.51;99164.25;5030679;28;20037;-80
2021/12/14 02:03:56;;;;;;;59.00;27.63;;;;;;;23.67;17.06;99169.72;5027310;28;20036;-80
2021/12/14 02:06:30;;;;;;;59.22;25.02;;;;;;;23.48;17.36;99172.19;5027683;28;20025;-80
2021/12/14 02:09:00;;;;;;;47.38;23.08;;;;;;;23.63;17.41;99166.16;5029409;28;20037;-80
2021/12/14 02:11:31;;;;;;;58.05;28.02;;;;;;;23.42;17.53;99165.38;5030550;28;20485;-80
2021/12/14 02:13:58;;;;;;;48.90;23.13;;;;;;;23.26;17.63;99166.59;5027730;28;20033;-80
2021/12/14 02:16:24;;;;;;;53.83;24.45;;;;;;;23.70;17.37;99171.72;5027090;28;20034;-80
2021/12/14 02:18:55;;;;;;;61.10;26.58;;;;;;;24.00;17.01;99165.59;5030154;28;20033;-80
2021/12/14 02:21:22;;;;;;;57.08;25.83;;;;;;;23.93;17.14;99168.44;5018600;28;20042;-80
2021/12/14 02:23:52;;;;;;;56.83;28.02;;;;;;;23.66;17.37;99170.94;5026816;28;20053;-80
2021/12/14 02:26:23;;;;;;;59.25;26.98;;;;;;;23.38;17.46;99174.59;5022617;28;20037;-80
2021/12/14 02:28:49;;;;;;;63.10;28.63;;;;;;;23.20;17.62;99171.00;5020089;28;20083;-80
2021/12/14 02:31:21;;;;;;;63.20;27.08;;;;;;;23.14;17.74;99171.81;5027280;28;20113;-80
2021/12/14 02:33:50;;;;;;;57.20;25.45;;;;;;;23.09;18.03;99170.22;5023944;28;20457;-80
2021/12/14 02:36:30;;;;;;;52.55;24.55;;;;;;;23.20;17.92;99176.59;5023280;28;20029;-80
2021/12/14 02:39:24;;;;;;;53.50;24.95;;;;;;;23.36;17.76;99171.41;5029651;28;20172;-80
2021/12/14 02:41:54;;;;;;;45.97;22.50;;;;;;;23.53;17.58;99169.75;5029340;28;20091;-80
2021/12/14 02:44:22;;;;;;;55.65;24.35;;;;;;;23.46;17.55;99172.59;5023118;28;20172;-80
2021/12/14 02:46:53;;;;;;;54.53;26.45;;;;;;;23.03;18.08;99171.81;5023265;28;20113;-80
2021/12/14 02:49:24;;;;;;;50.25;23.48;;;;;;;22.73;18.47;99168.63;5029565;28;20033;-80
2021/12/14 02:51:54;;;;;;;49.40;21.83;;;;;;;22.84;18.34;99171.41;5025922;28;20046;-80
2021/12/14 02:54:31;;;;;;;50.42;22.30;;;;;;;22.97;18.10;99176.22;5029227;28;20055;-80
2021/12/14 02:57:09;;;;;;;51.15;21.73;;;;;;;23.03;17.98;99179.44;5026173;28;20068;-80
2021/12/14 02:59:37;;;;;;;47.65;21.20;;;;;;;22.98;18.22;99172.22;5022525;28;20057;-80
2021/12/14 03:02:08;;;;;;;63.15;27.67;;;;;;;22.86;18.32;99172.63;5026262;28;20025;-80
2021/12/14 03:04:46;;;;;;;57.85;25.17;;;;;;;22.85;18.16;99178.63;5020296;28;20383;-80
2021/12/14 03:07:13;;;;;;;54.72;24.17;;;;;;;22.74;18.52;99177.78;5025248;28;20077;-80
2021/12/14 03:09:58;;;;;;;68.18;26.98;;;;;;;22.51;18.65;99173.34;5025323;28;20041;-80
2021/12/14 03:12:33;;;;;;;57.78;24.50;;;;;;;22.40;18.85;99171.72;5020238;28;20114;-80
2021/12/14 03:15:10;;;;;;;46.85;23.10;;;;;;;22.50;18.79;99174.53;5026295;28;20052;-80
2021/12/14 03:17:38;;;;;;;66.20;27.38;;;;;;;22.69;18.47;99173.41;5029754;28;20041;-80
2021/12/14 03:20:22;;;;;;;65.35;28.88;;;;;;;22.59;18.59;99171.38;5027981;28;20041;-80
2021/12/14 03:23:06;;;;;;;71.38;29.52;;;;;;;22.71;18.58;99175.81;5021515;28;20053;-80
2021/12/14 03:25:35;;;;;;;67.43;29.27;;;;;;;22.91;18.26;99165.81;5026984;28;20488;-80
2021/12/14 03:28:02;;;;;;;61.45;25.85;;;;;;;23.16;18.23;99172.19;5026627;28;20524;-80
2021/12/14 03:30:39;;;;;;;63.97;26.23;;;;;;;23.38;17.96;99179.44;5027459;28;20060;-80
2021/12/14 03:33:17;;;;;;;70.72;28.73;;;;;;;23.35;17.82;99181.03;5029568;28;20036;-80
2021/12/14 03:36:02;;;;;;;60.40;27.63;;;;;;;23.17;18.07;99176.63;5030361;28;20040;-80
2021/12/14 03:38:55;;;;;;;60.08;27.23;;;;;;;23.21;18.19;99177.41;5029355;28;20034;-80
2021/12/14 03:41:32;;;;;;;55.33;23.75;;;;;;;23.31;17.99;99182.22;5022378;28;20037;-80
2021/12/14 03:44:02;;;;;;;60.42;25.75;;;;;;;23.28;17.91;99177.41;5029686;28;20397;-80
2021/12/14 03:46:36;;;;;;;61.85;25.83;;;;;;;23.10;18.26;99179.41;5028303;28;20041;-80
2021/12/14 03:49:05;;;;;;;47.63;20.65;;;;;;;23.46;18.12;99172.59;5030009;28;20041;-80
2021/12/14 03:51:31;;;;;;;42.45;20.33;;;;;;;23.80;17.62;99162.50;5023543;28;20116;-80
2021/12/14 03:53:58;;;;;;;48.58;21.55;;;;;;;24.32;17.22;99157.84;5028198;28;20072;-80
2021/12/14 03:56:29;;;;;;;48.47;22.30;;;;;;;24.71;16.46;99149.97;5020909;28;20044;-80
2021/12/14 03:58:56;;;;;;;58.65;24.90;;;;;;;24.84;16.48;99139.06;5028111;28;20033;-80
2021/12/14 04:01:30;;;;;;;53.90;23.77;;;;;;;24.95;16.53;99139.00;5025958;28;20091;-80
2021/12/14 04:04:20;;;;;;;43.00;20.10;;;;;;;25.04;16.33;99130.88;5025100;28;20056;-80
2021/12/14 04:06:50;;;;;;;52.15;22.52;;;;;;;25.04;16.09;99142.13;5027463;28;20120;-80
2021/12/14 04:09:20;;;;;;;46.28;21.75;;;;;;;24.93;16.34;99130.94;5027214;28;20038;-80
2021/12/14 04:11:47;;;;;;;50.33;21.98;;;;;;;24.88;16.40;99141.84;5023537;28;20045;-80
2021/12/14 04:14:14;;;;;;;48.70;20.83;;;;;;;24.38;16.81;99141.38;5021008;28;20069;-80
2021/12/14 04:16:43;;;;;;;58.30;22.50;;;;;;;24.61;16.73;99138.81;5026413;28;20041;-79
2021/12/14 04:19:13;;;;;;;53.60;23.35;;;;;;;24.76;16.64;99137.53;5029790;28;20928;-80
2021/12/14 04:21:42;;;;;;;62.15;27.27;;;;;;;24.61;16.49;99131.19;5029596;28;20491;-80
2021/12/14 04:24:10;;;;;;;60.75;26.88;;;;;;;24.08;16.82;99130.75;5028042;28;20041;-79
2021/12/14 04:26:44;;;;;;;55.88;24.80;;;;;;;23.71;17.09;99131.25;5027523;28;20068;-80
2021/12/14 04:29:12;;;;;;;53.58;24.20;;;;;;;23.85;17.06;99136.03;5028644;28;20033;-80
2021/12/14 04:31:42;;;;;;;53.90;22.27;;;;;;;24.24;16.55;99133.03;5029041;28;20092;-80
2021/12/14 04:34:08;;;;;;;49.90;22.77;;;;;;;24.50;16.12;99129.69;5024494;28;20049;-80
2021/12/14 04:36:35;;;;;;;47.38;21.80;;;;;;;24.57;16.25;99129.63;5032847;28;20622;-80
2021/12/14 04:53:30;;;;;;;20.90;11.70;;;;;;;24.02;17.09;99144.34;5028187;28;20393;-80
2021/12/14 04:56:01;;;;;;;30.23;14.80;;;;;;;23.92;17.17;99148.00;5026667;28;20065;-80
2021/12/14 04:58:35;;;;;;;25.63;13.32;;;;;;;24.19;16.79;99148.31;5032452;28;20025;-80
2021/12/14 05:01:04;;;;;;;25.15;12.38;;;;;;;24.28;16.69;99139.44;5026233;28;20072;-80
2021/12/14 05:03:38;;;;;;;27.95;13.73;;;;;;;24.50;16.48;99149.34;5026023;28;20044;-80
2021/12/14 05:11:14;;;;;;;53.45;22.65;;;;;;;23.89;16.81;99143.22;5031271;28;20063;-80
2021/12/14 05:13:59;;;;;;;53.35;23.00;;;;;;;23.90;17.03;99142.00;5027744;28;20112;-80
2021/12/14 05:16:29;;;;;;;56.72;23.88;;;;;;;24.08;16.80;99150.38;5027663;28;20121;-80
2021/12/14 05:19:03;;;;;;;50.10;22.35;;;;;;;24.46;16.52;99151.34;5031049;28;20036;-80
2021/12/14 05:21:41;;;;;;;57.53;25.02;;;;;;;24.05;16.81;99151.97;5026967;28;20124;-80
2021/12/14 05:24:11;;;;;;;54.47;23.40;;;;;;;23.93;17.14;99148.81;5028244;28;20064;-80
2021/12/14 05:26:38;;;;;;;39.67;19.15;;;;;;;23.97;16.91;99156.00;5025967;28;20535;-80
2021/12/14 05:29:05;;;;;;;50.25;22.30;;;;;;;24.10;16.96;99152.75;5021711;28;20038;-80
2021/12/14 05:31:32;;;;;;;39.30;19.23;;;;;;;24.19;16.73;99153.91;5022522;28;20033;-80
2021/12/14 05:33:58;;;;;;;45.20;21.00;;;;;;;24.18;16.80;99159.94;5021184;28;20087;-80
2021/12/14 05:36:25;;;;;;;52.42;22.20;;;;;;;23.80;17.16;99158.88;5022449;28;20048;-80
2021/12/14 05:44:25;;;;;;;49.70;22.48;;;;;;;24.08;16.88;99163.59;5024817;28;20056;-80
2021/12/14 05:46:55;;;;;;;56.30;22.67;;;;;;;24.40;16.69;99173.44;5032645;28;20109;-80
2021/12/14 05:49:24;;;;;;;40.10;19.17;;;;;;;24.78;16.20;99157.59;5029921;28;20104;-80
2021/12/14 05:51:54;;;;;;;37.65;18.45;;;;;;;24.91;16.12;99155.88;5023343;28;20034;-80
2021/12/14 05:54:23;;;;;;;41.45;18.83;;;;;;;25.03;16.00;99157.38;5026410;28;20025;-81
2021/12/14 05:56:51;;;;;;;45.78;21.33;;;;;;;24.97;16.05;99164.66;5027107;28;20564;-80
2021/12/14 05:59:22;;;;;;;53.00;24.35;;;;;;;24.71;15.93;99149.97;5030830;28;20427;-79
2021/12/14 06:01:49;;;;;;;76.82;29.92;;;;;;;23.38;17.17;99159.81;5025739;28;20044;-79
2021/12/14 06:04:16;;;;;;;69.28;28.83;;;;;;;23.32;17.27;99158.56;5025308;28;20037;-79
2021/12/14 06:06:48;;;;;;;60.08;26.55;;;;;;;23.36;17.28;99153.81;5025577;28;20033;-79
2021/12/14 06:09:23;;;;;;;53.75;25.23;;;;;;;23.33;17.51;99165.78;5023434;28;20034;-79
2021/12/14 06:12:11;;;;;;;64.68;27.70;;;;;;;22.85;17.75;99171.00;5023897;28;20041;-82
2021/12/14 06:14:43;;;;;;;60.25;25.67;;;;;;;22.62;18.13;99170.59;5025324;28;20165;-81
2021/12/14 06:17:10;;;;;;;51.58;24.10;;;;;;;22.62;18.19;99170.59;5021119;28;20124;-81
2021/12/14 06:19:39;;;;;;;54.70;24.73;;;;;;;22.36;18.42;99168.91;5027039;28;20060;-81
2021/12/14 06:22:13;;;;;;;52.55;22.92;;;;;;;22.72;18.20;99161.41;5027631;28;20421;-82
2021/12/14 06:28:48;;;;;;;42.30;18.98;;;;;;;23.61;17.15;99162.16;5030597;28;20072;-81
2021/12/14 06:31:14;;;;;;;40.95;19.63;;;;;;;24.07;16.83;99156.38;5025250;28;20152;-81
2021/12/14 06:33:41;;;;;;;45.50;21.30;;;;;;;23.68;17.23;99157.31;5032952;28;20136;-82
2021/12/14 06:36:36;;;;;;;45.85;20.40;;;;;;;23.16;17.93;99161.81;5033667;28;20034;-81
2021/12/14 06:39:06;;;;;;;40.00;19.30;;;;;;;23.15;17.86;99163.00;5032321;28;20053;-82
2021/12/14 06:41:32;;;;;;;46.47;21.27;;;;;;;22.88;18.08;99155.41;5033128;28;20041;-81
2021/12/14 06:44:11;;;;;;;37.70;17.55;;;;;;;23.31;17.86;99148.56;5033552;28;20034;-82
2021/12/14 06:46:40;;;;;;;42.35;18.92;;;;;;;24.01;16.98;99151.16;5030241;28;20033;-82
2021/12/14 06:49:10;;;;;;;42.65;20.15;;;;;;;24.12;16.70;99141.94;5017847;28;20126;-82
2021/12/14 06:52:00;;;;;;;45.47;21.53;;;;;;;23.79;17.29;99144.06;5026672;28;20029;-81
2021/12/14 06:54:28;;;;;;;39.80;19.10;;;;;;;23.28;17.60;99164.19;5020088;28;20044;-80
2021/12/14 06:57:01;;;;;;;47.15;20.25;;;;;;;23.19;17.73;99157.41;5029765;28;20033;-79
2021/12/14 06:59:27;;;;;;;38.70;19.92;;;;;;;23.23;17.77;99159.00;5029473;28;20034;-79
2021/12/14 07:01:57;;;;;;;40.40;19.15;;;;;;;22.88;18.08;99166.59;5030737;28;20045;-79
2021/12/14 07:04:27;;;;;;;40.78;18.90;;;;;;;23.05;18.11;99158.22;5035149;28;20408;-79
2021/12/14 07:07:04;;;;;;;40.88;21.08;;;;;;;22.67;18.25;99154.22;5028449;28;20083;-80
2021/12/14 07:09:40;;;;;;;45.67;21.85;;;;;;;22.05;19.04;99155.66;5028943;28;20033;-78
2021/12/14 07:12:31;;;;;;;42.63;20.35;;;;;;;22.03;19.22;99158.03;5023487;28;20072;-79
2021/12/14 07:15:23;;;;;;;48.75;23.02;;;;;;;21.39;19.85;99156.09;5032276;28;20555;-79
2021/12/14 07:18:01;;;;;;;51.88;25.02;;;;;;;21.20;19.80;99155.19;5027804;28;20021;-78
2021/12/14 07:20:32;;;;;;;42.55;21.50;;;;;;;21.70;19.37;99152.69;5020230;28;20512;-78
2021/12/14 07:23:03;;;;;;;47.78;23.35;;;;;;;21.99;19.08;99140.44;5013913;28;20061;-78
2021/12/14 07:25:39;;;;;;;42.20;21.75;;;;;;;22.26;18.88;99147.31;5031975;28;20041;-78
2021/12/14 07:28:09;;;;;;;53.58;24.33;;;;;;;22.31;18.72;99148.94;5026697;28;20084;-78
2021/12/14 07:30:42;;;;;;;51.85;26.73;;;;;;;21.13;19.95;99151.53;5024313;28;20029;-78
2021/12/14 07:33:14;;;;;;;38.95;20.23;;;;;;;20.86;20.33;99150.13;5016503;28;20048;-78
2021/12/14 07:35:54;;;;;;;43.83;21.38;;;;;;;21.46;19.78;99159.75;5025273;28;20415;-78
2021/12/14 07:38:31;;;;;;;47.55;22.65;;;;;;;21.03;20.27;99160.59;5021097;28;20037;-78
2021/12/14 07:41:11;;;;;;;38.75;18.17;;;;;;;22.07;19.40;99150.47;5024665;28;20030;-78
2021/12/14 07:43:41;;;;;;;45.58;20.13;;;;;;;22.14;19.14;99153.28;5031674;28;20045;-78
2021/12/14 07:46:20;;;;;;;40.55;18.63;;;;;;;22.37;18.87;99156.53;5032364;28;20021;-78
2021/12/14 07:48:53;;;;;;;40.38;19.40;;;;;;;22.76;18.57;99147.41;5029593;28;20504;-78
2021/12/14 07:51:22;;;;;;;36.67;18.23;;;;;;;22.71;18.81;99150.63;5028249;28;20047;-78
2021/12/14 07:53:53;;;;;;;38.90;18.33;;;;;;;22.27;19.05;99162.91;5027701;28;20042;-78
2021/12/14 07:56:22;;;;;;;;;;;;;;;22.26;19.13;99157.72;5023065;28;20029;-79
2021/12/14 07:58:48;;;;;;;35.60;17.67;;;;;;;22.61;19.01;99163.41;5032102;28;19917;-80
2021/12/14 08:01:15;;;;;;;39.35;18.60;;;;;;;23.15;18.46;99162.22;5031066;28;20076;-79
2021/12/14 08:03:42;;;;;;;42.17;19.60;;;;;;;22.82;18.59;99160.63;5031758;28;20065;-79
2021/12/14 08:06:11;;;;;;;36.15;18.33;;;;;;;23.13;18.46;99157.00;5033468;28;20040;-80
2021/12/14 08:08:56;;;;;;;38.40;18.75;;;;;;;23.53;18.09;99155.75;5032061;28;20041;-79
2021/12/14 08:14:01;;;;;;;31.67;15.30;;;;;;;22.93;18.90;99166.22;5031794;28;20368;-79
2021/12/14 08:16:49;;;;;;;34.08;15.50;;;;;;;23.35;18.42;99171.81;5032321;28;20067;-79
2021/12/14 08:19:40;;;;;;;35.13;16.38;;;;;;;24.09;18.21;99166.00;5017785;28;20021;-79
2021/12/14 08:22:13;;;;;;;31.48;13.90;;;;;;;24.93;16.79;99158.25;5031701;28;20033;-80
2021/12/14 08:24:47;;;;;;;32.33;15.23;;;;;;;24.91;16.91;99160.69;5025732;28;20161;-80
2021/12/14 08:27:17;;;;;;;33.35;17.15;;;;;;;24.60;17.23;99154.84;5034061;28;20046;-80
2021/12/14 08:29:50;;;;;;;31.77;13.98;;;;;;;24.56;17.26;99153.28;5032809;28;20033;-80
2021/12/14 08:32:23;;;;;;;31.75;14.73;;;;;;;24.68;17.32;99158.41;5035955;28;20029;-80
2021/12/14 08:34:51;;;;;;;28.23;14.40;;;;;;;24.93;17.11;99150.63;5033860;28;20041;-80
2021/12/14 08:37:43;;;;;;;32.85;15.40;;;;;;;24.78;17.12;99151.16;5032012;28;20034;-80
2021/12/14 08:40:37;;;;;;;26.13;14.45;;;;;;;24.63;17.33;99150.44;5033572;28;20108;-80
2021/12/14 08:43:23;;;;;;;30.05;14.50;;;;;;;24.75;17.30;99144.31;5028309;28;20041;-80
2021/12/14 08:45:58;;;;;;;29.50;15.35;;;;;;;24.25;17.84;99141.03;5029749;28;20056;-80
2021/12/14 08:48:34;;;;;;;29.50;15.50;;;;;;;24.28;17.76;99139.44;5029519;28;20034;-80
2021/12/14 08:51:13;;;;;;;26.83;15.13;;;;;;;24.15;17.99;99141.94;5027532;28;20035;-80
2021/12/14 08:53:45;;;;;;;31.35;15.00;;;;;;;23.63;18.46;99149.31;5027757;28;20345;-79
2021/12/14 08:56:13;;;;;;;34.28;17.00;;;;;;;22.48;19.48;99145.34;5031996;28;20128;-80
2021/12/14 08:58:40;;;;;;;27.83;15.23;;;;;;;22.66;19.43;99143.41;5031076;28;20032;-80
2021/12/14 09:01:14;;;;;;;25.45;13.43;;;;;;;22.89;19.15;99138.22;5020551;28;20405;-80
2021/12/14 09:03:51;;;;;;;28.60;14.43;;;;;;;22.61;19.55;99133.38;5028422;28;20528;-80
2021/12/14 09:06:19;;;;;;;27.92;14.70;;;;;;;22.58;19.58;99136.97;5020424;28;20041;-80
2021/12/14 09:08:48;;;;;;;27.42;13.43;;;;;;;22.17;19.91;99140.50;5027414;28;20030;-80
2021/12/14 09:11:20;;;;;;;26.63;12.32;;;;;;;22.90;19.32;99142.59;5032521;28;20037;-80
2021/12/14 09:13:46;;;;;;;22.65;11.23;;;;;;;23.52;18.95;99145.75;5028823;28;20118;-80
2021/12/14 09:16:23;;;;;;;26.92;12.90;;;;;;;23.88;18.15;99133.19;5028280;28;20116;-80
2021/12/14 09:18:55;;;;;;;26.05;12.52;;;;;;;24.14;18.44;99133.91;5030311;28;20904;-80
2021/12/14 09:21:35;;;;;;;23.90;11.85;;;;;;;24.87;17.62;99124.19;5027346;28;21770;-80
2021/12/14 09:24:06;;;;;;;26.15;13.43;;;;;;;24.84;17.31;99133.44;5027378;28;20045;-80
2021/12/14 09:26:35;;;;;;;20.95;11.10;;;;;;;24.91;17.37;99132.56;5018323;28;20038;-80
2021/12/14 09:29:05;;;;;;;26.55;12.40;;;;;;;24.97;17.26;99128.91;5013328;28;20539;-80
2021/12/14 09:31:35;;;;;;;22.17;12.23;;;;;;;24.97;17.43;99131.72;5022227;28;20034;-80
2021/12/14 09:34:04;;;;;;;21.65;11.20;;;;;;;24.89;17.27;99135.81;5027731;28;20105;-80
2021/12/14 09:36:30;;;;;;;22.40;11.20;;;;;;;25.28;17.62;99130.63;5028931;28;20071;-80
2021/12/14 09:39:10;;;;;;;20.52;10.20;;;;;;;25.62;16.93;99122.25;5019090;28;20033;-80
2021/12/14 09:41:40;;;;;;;24.15;12.25;;;;;;;25.42;17.31;99116.41;5015182;28;20042;-80
2021/12/14 09:44:11;;;;;;;26.00;11.43;;;;;;;25.85;17.18;99101.88;5022581;28;20091;-80
2021/12/14 09:46:38;;;;;;;23.98;12.07;;;;;;;26.18;16.49;99097.44;5027347;28;20044;-80
2021/12/14 09:49:08;;;;;;;22.25;12.25;;;;;;;26.13;16.48;99095.91;5033313;28;20022;-80
2021/12/14 09:51:46;;;;;;;24.95;12.75;;;;;;;25.64;17.28;99096.50;5034590;28;20519;-80
2021/12/14 09:54:16;;;;;;;28.85;13.38;;;;;;;24.68;17.50;99097.44;5027676;28;20045;-80
2021/12/14 09:56:57;;;;;;;28.73;13.40;;;;;;;23.45;19.20;99114.13;5029664;28;20022;-79
2021/12/14 09:59:23;;;;;;;23.20;12.13;;;;;;;22.23;20.72;99114.53;5030087;28;20041;-79
2021/12/14 10:01:57;;;;;;;21.45;11.30;;;;;;;23.11;19.46;99119.38;5027503;28;20112;-80
2021/12/14 10:04:28;;;;;;;24.23;11.60;;;;;;;24.32;18.66;99101.72;5032690;28;20496;-79
2021/12/14 10:06:57;;;;;;;21.02;11.45;;;;;;;25.26;17.92;99102.13;5032394;28;20162;-80
2021/12/14 10:09:27;;;;;;;15.57;8.20;;;;;;;25.96;17.03;99094.09;5030004;28;20026;-80
2021/12/14 10:14:51;;;;;;;9.98;4.82;;;;;;;26.60;16.73;99088.34;5031998;28;20098;-80
2021/12/14 10:17:23;;;;;;;10.55;6.40;;;;;;;26.36;16.52;99093.13;5029583;28;20037;-79
2021/12/14 10:19:49;;;;;;;10.65;5.75;;;;;;;26.18;17.08;99089.00;5030542;28;20065;-79
2021/12/14 10:22:23;;;;;;;9.43;5.78;;;;;;;26.40;16.72;99084.63;5032769;28;20037;-79
2021/12/14 10:24:51;;;;;;;9.48;4.85;;;;;;;26.44;16.76;99091.03;5030125;28;20037;-79
2021/12/14 10:27:21;;;;;;;7.97;4.88;;;;;;;26.73;16.70;99087.31;5031689;28;20063;-79
2021/12/14 10:29:48;;;;;;;9.02;5.18;;;;;;;26.95;16.80;99099.06;5027198;28;20500;-79
2021/12/14 10:32:25;;;;;;;9.57;5.25;;;;;;;27.04;16.73;99093.66;5032088;28;20113;-79
2021/12/14 10:34:56;;;;;;;10.60;5.55;;;;;;;26.96;15.86;99089.34;5032464;28;20397;-79
2021/12/14 10:37:25;;;;;;;;;;;;;;;26.87;16.09;99088.31;5034444;28;20056;-79
2021/12/14 10:45:28;;;;;;;9.95;5.60;;;;;;;25.80;17.16;99091.09;5022992;28;20049;-79
2021/12/14 10:47:56;;;;;;;10.68;5.95;;;;;;;26.31;17.03;99098.44;5036251;28;20040;-79
2021/12/14 10:50:30;;;;;;;12.48;6.93;;;;;;;25.97;16.67;99095.69;5032786;28;20033;-79
2021/12/14 10:52:56;;;;;;;7.45;4.70;;;;;;;25.26;17.63;99092.91;5039282;28;20044;-79
2021/12/14 10:55:32;;;;;;;11.25;6.57;;;;;;;23.68;18.73;99089.22;5036368;28;20041;-79
2021/12/14 10:57:59;;;;;;;14.25;7.68;;;;;;;23.72;19.16;99081.59;5035792;28;20029;-79
2021/12/14 11:00:36;;;;;;;12.25;6.30;;;;;;;24.18;18.90;99095.41;5028478;28;20032;-79
2021/12/14 11:03:08;;;;;;;9.70;6.53;;;;;;;24.19;18.71;99086.56;5022850;28;20037;-79
2021/12/14 11:05:36;;;;;;;12.98;7.03;;;;;;;23.43;18.85;99083.72;5025873;28;20037;-79
2021/12/14 11:08:06;;;;;;;11.55;7.07;;;;;;;23.62;19.15;99082.44;5028134;28;20419;-79
2021/12/14 11:10:38;;;;;;;14.05;6.78;;;;;;;24.29;18.87;99079.28;5024432;28;20608;-79
2021/12/14 11:13:08;;;;;;;13.68;6.97;;;;;;;24.80;18.41;99076.50;5025823;28;20036;-79
2021/12/14 11:15:40;;;;;;;13.05;7.68;;;;;;;25.09;18.03;99077.00;5017691;28;20060;-79
2021/12/14 11:18:14;;;;;;;18.98;7.50;;;;;;;25.39;17.19;99074.28;5021134;28;20068;-79
2021/12/14 11:20:51;;;;;;;14.88;8.25;;;;;;;25.51;17.61;99070.16;5024897;28;20057;-79
2021/12/14 11:23:25;;;;;;;12.82;7.55;;;;;;;25.81;17.23;99067.38;5032080;28;20120;-79
2021/12/14 11:25:54;;;;;;;11.93;6.70;;;;;;;25.85;16.98;99071.72;5027594;28;20038;-79
2021/12/14 11:28:34;;;;;;;12.52;7.45;;;;;;;26.19;16.96;99068.06;5023465;28;20493;-79
2021/12/14 11:31:18;;;;;;;13.40;7.30;;;;;;;26.54;16.35;99067.50;5028420;28;20064;-79
2021/12/14 11:33:56;;;;;;;19.25;9.57;;;;;;;26.15;16.78;99059.66;5027129;28;20032;-79
2021/12/14 11:36:40;;;;;;;15.85;9.15;;;;;;;25.93;16.82;99058.34;5036732;28;20447;-79
2021/12/14 11:39:23;;;;;;;16.98;8.50;;;;;;;26.00;17.33;99052.63;5031426;28;20036;-80
2021/12/14 11:41:59;;;;;;;18.13;8.43;;;;;;;26.43;16.72;99047.97;5031497;28;20052;-79
2021/12/14 11:44:50;;;;;;;17.27;9.20;;;;;;;26.14;16.47;99037.59;5028416;28;20038;-80
2021/12/14 11:49:54;;;;;;;15.52;9.15;;;;;;;25.11;17.39;99035.25;5035793;28;20535;-79
2021/12/14 11:52:54;;;;;;;17.00;9.00;;;;;;;24.11;18.53;99039.34;5032705;28;20038;-80
2021/12/14 11:55:32;;;;;;;21.33;10.00;;;;;;;22.48;20.46;99048.19;5042552;28;20120;-79
2021/12/14 11:58:06;;;;;;;21.63;11.60;;;;;;;21.28;22.04;99052.69;5042265;28;20040;-80
2021/12/14 12:00:36;;;;;;;20.23;9.82;;;;;;;22.98;20.27;99048.19;5029725;28;20374;-79
2021/12/14 12:03:26;;;;;;;25.80;11.85;;;;;;;22.62;19.72;99051.03;5026368;28;20033;-80
2021/12/14 12:06:01;;;;;;;20.88;10.35;;;;;;;22.74;20.35;99058.22;5031483;28;20136;-79
2021/12/14 12:11:17;;;;;;;21.83;11.55;;;;;;;21.48;21.56;99053.97;5028597;28;20413;-79
2021/12/14 12:13:45;;;;;;;28.30;12.50;;;;;;;21.25;21.88;99053.47;5027019;28;20424;-79
2021/12/14 12:16:20;;;;;;;21.60;11.95;;;;;;;22.17;20.46;99054.56;5025861;28;20037;-80
2021/12/14 12:19:16;;;;;;;22.85;11.13;;;;;;;22.36;20.52;99053.38;5026164;28;20036;-80
2021/12/14 12:21:46;;;;;;;21.70;10.30;;;;;;;23.21;19.53;99054.94;5034786;28;20070;-80
2021/12/14 12:24:57;;;;;;;21.38;10.48;;;;;;;24.40;18.30;99052.75;5039601;28;20060;-80
2021/12/14 12:27:26;;;;;;;19.52;10.23;;;;;;;24.62;17.96;99044.94;5028309;28;20075;-79
2021/12/14 12:30:23;;;;;;;21.10;9.63;;;;;;;25.02;17.57;99046.97;5032255;28;20037;-80
2021/12/14 12:32:50;;;;;;;16.95;9.20;;;;;;;25.49;17.30;99024.78;5027434;28;20105;-80
2021/12/14 12:35:49;;;;;;;26.67;12.73;;;;;;;24.42;17.84;99039.09;5027634;28;20040;-79
2021/12/14 12:38:26;;;;;;;31.00;14.57;;;;;;;21.20;21.26;99037.06;5027919;28;20064;-80
2021/12/14 12:41:08;;;;;;;36.83;16.65;;;;;;;19.83;23.24;99048.72;5026928;28;20482;-80